Portada
METAR-TAF:

METAR-TAF

Aeropuertos :

Aeropuerto Internacional Mitiga

Trípoli, Libia

latitud: 32-54N, longitud: 13-17E, altitud: 11 m

METAR: falta

Hora: 07:10 (05:10 UTC)

Pronóstico

El informe se hizo hace 6 horas y 10 minutos, a las 23:00 UTC
Pronóstico válido del 24 a las 00 UTC al 24 a las 24 UTC
Viento 2 kt con dirección variable
Visibilidad: 8000 m
Escasas nubes a una altura de 2200 ft
Probabilidad 40%
del 24 a las 03 UTC al 24 a las 07 UTC
Visibilidad: 5000 m
neblina
Evolucionando progresivamente
del 24 a las 06 UTC al 24 a las 08 UTC
Viento 10 kt del oeste-suroeste
Evolucionando progresivamente
del 24 a las 10 UTC al 24 a las 12 UTC
Viento 12 kt del oeste-noroeste
Evolucionando progresivamente
del 24 a las 18 UTC al 24 a las 20 UTC

TAF: HLLM 232300Z 2400/2424 VRB02KT 8000 FEW022 PROB40 2403/2407 5000 BR BECMG 2406/2408 24010KT BECMG 2410/2412 30012KT BECMG 2418/2420 VRB2KT

Observaciones y pronósticos meteorológicos de más de 4000 aeropuertos (mensajes METAR y TAF).

Los puntos amarillos y rojos representan las estaciones disponibles.

Ponga el ratón en el punto deseado para ver el nombre de la estación.

Haga clic para ver las observaciones y los pronósticos meteorológicos.

Para cambiar el mapa : haga clic en los botones verdes con una cruz de color negro para hacer un zoom, en el botón verde con un guión para alejar o en las flechas verdes para mapas adyacentes.


METAR-TAF: